sensor_id;sensor_type;location;lat;lon;timestamp;P1;durP1;ratioP1;P2;durP2;ratioP2
14766;SDS011;7475;53.558;9.970;2022-11-25T00:01:50;62.58;;;18.58;;
14766;SDS011;7475;53.558;9.970;2022-11-25T00:04:15;94.77;;;18.77;;
14766;SDS011;7475;53.558;9.970;2022-11-25T00:06:41;82.10;;;17.48;;
14766;SDS011;7475;53.558;9.970;2022-11-25T00:09:09;119.60;;;16.40;;
14766;SDS011;7475;53.558;9.970;2022-11-25T00:11:37;89.55;;;16.33;;
14766;SDS011;7475;53.558;9.970;2022-11-25T00:14:04;121.40;;;16.20;;
14766;SDS011;7475;53.558;9.970;2022-11-25T00:16:30;107.30;;;17.17;;
14766;SDS011;7475;53.558;9.970;2022-11-25T00:18:55;105.20;;;17.07;;
14766;SDS011;7475;53.558;9.970;2022-11-25T00:21:23;118.67;;;19.03;;
14766;SDS011;7475;53.558;9.970;2022-11-25T00:23:57;163.57;;;18.90;;
14766;SDS011;7475;53.558;9.970;2022-11-25T00:26:24;61.17;;;15.50;;
14766;SDS011;7475;53.558;9.970;2022-11-25T00:28:51;90.63;;;17.13;;
14766;SDS011;7475;53.558;9.970;2022-11-25T00:31:17;118.20;;;17.27;;
14766;SDS011;7475;53.558;9.970;2022-11-25T00:33:44;95.97;;;17.97;;
14766;SDS011;7475;53.558;9.970;2022-11-25T00:36:14;83.93;;;19.20;;
14766;SDS011;7475;53.558;9.970;2022-11-25T00:38:41;238.40;;;23.50;;
14766;SDS011;7475;53.558;9.970;2022-11-25T00:41:07;119.70;;;20.40;;
14766;SDS011;7475;53.558;9.970;2022-11-25T00:43:51;187.25;;;23.67;;
14766;SDS011;7475;53.558;9.970;2022-11-25T00:46:35;136.02;;;20.63;;
14766;SDS011;7475;53.558;9.970;2022-11-25T00:49:00;190.77;;;23.30;;
14766;SDS011;7475;53.558;9.970;2022-11-25T00:51:26;117.97;;;20.48;;
14766;SDS011;7475;53.558;9.970;2022-11-25T00:53:51;67.97;;;20.03;;
14766;SDS011;7475;53.558;9.970;2022-11-25T00:56:16;83.63;;;23.00;;
14766;SDS011;7475;53.558;9.970;2022-11-25T00:58:42;60.10;;;21.20;;
14766;SDS011;7475;53.558;9.970;2022-11-25T01:01:09;88.93;;;22.77;;
14766;SDS011;7475;53.558;9.970;2022-11-25T01:03:35;71.53;;;21.07;;
14766;SDS011;7475;53.558;9.970;2022-11-25T01:06:04;56.90;;;21.37;;
14766;SDS011;7475;53.558;9.970;2022-11-25T01:08:31;74.97;;;22.43;;
14766;SDS011;7475;53.558;9.970;2022-11-25T01:10:58;96.20;;;20.37;;
14766;SDS011;7475;53.558;9.970;2022-11-25T01:13:24;117.20;;;21.07;;
14766;SDS011;7475;53.558;9.970;2022-11-25T01:15:49;115.77;;;22.73;;
14766;SDS011;7475;53.558;9.970;2022-11-25T01:18:15;50.93;;;22.07;;
14766;SDS011;7475;53.558;9.970;2022-11-25T01:20:40;106.50;;;22.80;;
14766;SDS011;7475;53.558;9.970;2022-11-25T01:23:05;141.83;;;23.53;;
14766;SDS011;7475;53.558;9.970;2022-11-25T01:25:30;106.93;;;20.23;;
14766;SDS011;7475;53.558;9.970;2022-11-25T01:27:56;81.83;;;19.17;;
14766;SDS011;7475;53.558;9.970;2022-11-25T01:30:21;99.13;;;19.17;;
14766;SDS011;7475;53.558;9.970;2022-11-25T01:32:46;85.33;;;19.63;;
14766;SDS011;7475;53.558;9.970;2022-11-25T01:35:12;62.73;;;18.10;;
14766;SDS011;7475;53.558;9.970;2022-11-25T01:37:37;82.50;;;20.13;;
14766;SDS011;7475;53.558;9.970;2022-11-25T01:40:02;55.27;;;19.57;;
14766;SDS011;7475;53.558;9.970;2022-11-25T01:42:29;84.07;;;19.83;;
14766;SDS011;7475;53.558;9.970;2022-11-25T01:47:52;105.60;;;21.10;;
14766;SDS011;7475;53.558;9.970;2022-11-25T01:50:20;113.53;;;22.37;;
14766;SDS011;7475;53.558;9.970;2022-11-25T01:52:49;67.73;;;19.40;;
14766;SDS011;7475;53.558;9.970;2022-11-25T01:55:26;86.23;;;19.47;;
14766;SDS011;7475;53.558;9.970;2022-11-25T02:00:54;70.70;;;21.37;;
14766;SDS011;7475;53.558;9.970;2022-11-25T02:03:23;64.50;;;19.80;;
14766;SDS011;7475;53.558;9.970;2022-11-25T02:06:12;61.53;;;21.40;;
14766;SDS011;7475;53.558;9.970;2022-11-25T02:08:43;49.87;;;21.27;;
14766;SDS011;7475;53.558;9.970;2022-11-25T02:11:13;40.37;;;21.83;;
14766;SDS011;7475;53.558;9.970;2022-11-25T02:13:40;38.30;;;20.43;;
14766;SDS011;7475;53.558;9.970;2022-11-25T02:16:05;40.53;;;22.43;;
14766;SDS011;7475;53.558;9.970;2022-11-25T02:18:31;40.70;;;20.93;;
14766;SDS011;7475;53.558;9.970;2022-11-25T02:20:56;32.70;;;17.63;;
14766;SDS011;7475;53.558;9.970;2022-11-25T02:26:00;34.93;;;19.33;;
14766;SDS011;7475;53.558;9.970;2022-11-25T02:28:28;30.87;;;19.13;;
14766;SDS011;7475;53.558;9.970;2022-11-25T02:30:54;30.33;;;18.50;;
14766;SDS011;7475;53.558;9.970;2022-11-25T02:33:20;29.17;;;18.47;;
14766;SDS011;7475;53.558;9.970;2022-11-25T02:35:46;27.00;;;15.23;;
14766;SDS011;7475;53.558;9.970;2022-11-25T02:38:18;25.03;;;15.20;;
14766;SDS011;7475;53.558;9.970;2022-11-25T02:43:30;23.27;;;15.23;;
14766;SDS011;7475;53.558;9.970;2022-11-25T02:48:30;23.80;;;14.20;;
14766;SDS011;7475;53.558;9.970;2022-11-25T02:50:57;22.90;;;13.97;;
14766;SDS011;7475;53.558;9.970;2022-11-25T02:53:22;24.30;;;14.87;;
14766;SDS011;7475;53.558;9.970;2022-11-25T02:55:49;22.70;;;15.63;;
14766;SDS011;7475;53.558;9.970;2022-11-25T02:58:14;25.17;;;15.93;;
14766;SDS011;7475;53.558;9.970;2022-11-25T03:00:40;31.07;;;17.37;;
14766;SDS011;7475;53.558;9.970;2022-11-25T03:03:06;27.43;;;17.87;;
14766;SDS011;7475;53.558;9.970;2022-11-25T03:05:31;32.57;;;19.23;;
14766;SDS011;7475;53.558;9.970;2022-11-25T03:07:57;34.63;;;19.70;;
14766;SDS011;7475;53.558;9.970;2022-11-25T03:10:22;34.40;;;18.77;;
14766;SDS011;7475;53.558;9.970;2022-11-25T03:12:48;33.93;;;21.90;;
14766;SDS011;7475;53.558;9.970;2022-11-25T03:15:14;35.43;;;21.10;;
14766;SDS011;7475;53.558;9.970;2022-11-25T03:17:40;35.90;;;20.20;;
14766;SDS011;7475;53.558;9.970;2022-11-25T03:20:06;32.37;;;18.83;;
14766;SDS011;7475;53.558;9.970;2022-11-25T03:22:32;32.83;;;18.40;;
14766;SDS011;7475;53.558;9.970;2022-11-25T03:24:58;28.73;;;16.93;;
14766;SDS011;7475;53.558;9.970;2022-11-25T03:27:23;30.00;;;18.63;;
14766;SDS011;7475;53.558;9.970;2022-11-25T03:29:49;30.50;;;18.07;;
14766;SDS011;7475;53.558;9.970;2022-11-25T03:32:14;34.20;;;17.93;;
14766;SDS011;7475;53.558;9.970;2022-11-25T03:34:39;32.90;;;17.97;;
14766;SDS011;7475;53.558;9.970;2022-11-25T03:37:05;32.47;;;18.13;;
14766;SDS011;7475;53.558;9.970;2022-11-25T03:39:31;34.00;;;18.30;;
14766;SDS011;7475;53.558;9.970;2022-11-25T03:41:56;32.03;;;15.57;;
14766;SDS011;7475;53.558;9.970;2022-11-25T03:44:22;34.60;;;17.43;;
14766;SDS011;7475;53.558;9.970;2022-11-25T03:46:47;35.73;;;18.17;;
14766;SDS011;7475;53.558;9.970;2022-11-25T03:49:12;34.30;;;17.07;;
14766;SDS011;7475;53.558;9.970;2022-11-25T03:51:38;31.93;;;17.43;;
14766;SDS011;7475;53.558;9.970;2022-11-25T03:54:03;31.90;;;17.03;;
14766;SDS011;7475;53.558;9.970;2022-11-25T03:56:28;31.40;;;17.23;;
14766;SDS011;7475;53.558;9.970;2022-11-25T03:58:54;31.57;;;17.03;;
14766;SDS011;7475;53.558;9.970;2022-11-25T04:01:19;32.73;;;16.67;;
14766;SDS011;7475;53.558;9.970;2022-11-25T04:03:44;33.07;;;17.93;;
14766;SDS011;7475;53.558;9.970;2022-11-25T04:06:10;30.93;;;17.07;;
14766;SDS011;7475;53.558;9.970;2022-11-25T04:08:35;32.50;;;17.53;;
14766;SDS011;7475;53.558;9.970;2022-11-25T04:11:00;35.27;;;17.70;;
14766;SDS011;7475;53.558;9.970;2022-11-25T04:13:26;33.93;;;18.33;;
14766;SDS011;7475;53.558;9.970;2022-11-25T04:15:51;30.53;;;16.60;;
14766;SDS011;7475;53.558;9.970;2022-11-25T04:18:17;30.57;;;16.77;;
14766;SDS011;7475;53.558;9.970;2022-11-25T04:20:43;29.87;;;15.80;;
14766;SDS011;7475;53.558;9.970;2022-11-25T04:23:09;27.83;;;15.67;;
14766;SDS011;7475;53.558;9.970;2022-11-25T04:25:36;30.77;;;16.20;;
14766;SDS011;7475;53.558;9.970;2022-11-25T04:28:02;26.43;;;16.33;;
14766;SDS011;7475;53.558;9.970;2022-11-25T04:30:28;27.80;;;15.60;;
14766;SDS011;7475;53.558;9.970;2022-11-25T04:32:54;28.03;;;15.60;;
14766;SDS011;7475;53.558;9.970;2022-11-25T04:35:20;22.50;;;14.43;;
14766;SDS011;7475;53.558;9.970;2022-11-25T04:37:46;24.33;;;15.23;;
14766;SDS011;7475;53.558;9.970;2022-11-25T04:40:11;22.57;;;14.17;;
14766;SDS011;7475;53.558;9.970;2022-11-25T04:42:37;22.00;;;14.90;;
14766;SDS011;7475;53.558;9.970;2022-11-25T04:45:08;26.53;;;13.17;;
14766;SDS011;7475;53.558;9.970;2022-11-25T04:47:35;21.30;;;13.47;;
14766;SDS011;7475;53.558;9.970;2022-11-25T04:50:01;22.93;;;13.47;;
14766;SDS011;7475;53.558;9.970;2022-11-25T04:52:27;25.83;;;12.90;;
14766;SDS011;7475;53.558;9.970;2022-11-25T04:54:53;20.10;;;13.07;;
14766;SDS011;7475;53.558;9.970;2022-11-25T04:57:18;23.20;;;12.00;;
14766;SDS011;7475;53.558;9.970;2022-11-25T04:59:44;22.10;;;13.50;;
14766;SDS011;7475;53.558;9.970;2022-11-25T05:02:13;19.17;;;12.80;;
14766;SDS011;7475;53.558;9.970;2022-11-25T05:04:39;21.20;;;11.30;;
14766;SDS011;7475;53.558;9.970;2022-11-25T05:07:05;23.40;;;12.53;;
14766;SDS011;7475;53.558;9.970;2022-11-25T05:09:30;19.20;;;11.23;;
14766;SDS011;7475;53.558;9.970;2022-11-25T05:11:56;20.97;;;12.13;;
14766;SDS011;7475;53.558;9.970;2022-11-25T05:14:21;20.30;;;12.07;;
14766;SDS011;7475;53.558;9.970;2022-11-25T05:16:48;17.40;;;10.60;;
14766;SDS011;7475;53.558;9.970;2022-11-25T05:19:13;20.33;;;11.70;;
14766;SDS011;7475;53.558;9.970;2022-11-25T05:21:38;18.17;;;10.07;;
14766;SDS011;7475;53.558;9.970;2022-11-25T05:24:04;18.33;;;11.60;;
14766;SDS011;7475;53.558;9.970;2022-11-25T05:26:29;17.23;;;11.07;;
14766;SDS011;7475;53.558;9.970;2022-11-25T05:28:55;17.77;;;10.93;;
14766;SDS011;7475;53.558;9.970;2022-11-25T05:31:21;18.43;;;10.70;;
14766;SDS011;7475;53.558;9.970;2022-11-25T05:33:46;17.73;;;11.23;;
14766;SDS011;7475;53.558;9.970;2022-11-25T05:36:11;18.43;;;10.77;;
14766;SDS011;7475;53.558;9.970;2022-11-25T05:38:36;18.17;;;10.80;;
14766;SDS011;7475;53.558;9.970;2022-11-25T05:41:03;19.60;;;10.90;;
14766;SDS011;7475;53.558;9.970;2022-11-25T05:43:31;15.90;;;10.27;;
14766;SDS011;7475;53.558;9.970;2022-11-25T05:45:56;19.77;;;9.97;;
14766;SDS011;7475;53.558;9.970;2022-11-25T05:48:22;17.43;;;10.13;;
14766;SDS011;7475;53.558;9.970;2022-11-25T05:50:47;20.07;;;9.57;;
14766;SDS011;7475;53.558;9.970;2022-11-25T05:53:13;22.20;;;10.37;;
14766;SDS011;7475;53.558;9.970;2022-11-25T05:55:41;16.67;;;10.10;;
14766;SDS011;7475;53.558;9.970;2022-11-25T05:58:08;18.53;;;10.67;;
14766;SDS011;7475;53.558;9.970;2022-11-25T06:00:36;14.60;;;9.10;;
14766;SDS011;7475;53.558;9.970;2022-11-25T06:03:03;14.77;;;8.90;;
14766;SDS011;7475;53.558;9.970;2022-11-25T06:05:29;17.70;;;9.30;;
14766;SDS011;7475;53.558;9.970;2022-11-25T06:07:54;16.17;;;8.87;;
14766;SDS011;7475;53.558;9.970;2022-11-25T06:10:20;13.63;;;8.97;;
14766;SDS011;7475;53.558;9.970;2022-11-25T06:12:45;19.87;;;9.30;;
14766;SDS011;7475;53.558;9.970;2022-11-25T06:15:10;18.07;;;9.23;;
14766;SDS011;7475;53.558;9.970;2022-11-25T06:17:36;14.63;;;8.90;;
14766;SDS011;7475;53.558;9.970;2022-11-25T06:20:02;14.70;;;9.07;;
14766;SDS011;7475;53.558;9.970;2022-11-25T06:22:28;17.07;;;9.80;;
14766;SDS011;7475;53.558;9.970;2022-11-25T06:24:53;19.20;;;9.30;;
14766;SDS011;7475;53.558;9.970;2022-11-25T06:27:19;16.73;;;9.43;;
14766;SDS011;7475;53.558;9.970;2022-11-25T06:29:44;13.23;;;9.50;;
14766;SDS011;7475;53.558;9.970;2022-11-25T06:32:09;15.73;;;8.70;;
14766;SDS011;7475;53.558;9.970;2022-11-25T06:34:35;16.77;;;9.57;;
14766;SDS011;7475;53.558;9.970;2022-11-25T06:37:01;14.07;;;8.27;;
14766;SDS011;7475;53.558;9.970;2022-11-25T06:39:26;15.33;;;8.67;;
14766;SDS011;7475;53.558;9.970;2022-11-25T06:41:51;17.10;;;9.37;;
14766;SDS011;7475;53.558;9.970;2022-11-25T06:44:17;12.97;;;8.37;;
14766;SDS011;7475;53.558;9.970;2022-11-25T06:46:42;15.67;;;8.43;;
14766;SDS011;7475;53.558;9.970;2022-11-25T06:49:07;13.10;;;8.37;;
14766;SDS011;7475;53.558;9.970;2022-11-25T06:51:33;17.53;;;8.60;;
14766;SDS011;7475;53.558;9.970;2022-11-25T06:53:58;16.37;;;8.90;;
14766;SDS011;7475;53.558;9.970;2022-11-25T06:56:24;20.77;;;9.20;;
14766;SDS011;7475;53.558;9.970;2022-11-25T06:58:51;16.03;;;9.27;;
14766;SDS011;7475;53.558;9.970;2022-11-25T07:01:25;13.67;;;8.53;;
14766;SDS011;7475;53.558;9.970;2022-11-25T07:03:53;13.77;;;8.53;;
14766;SDS011;7475;53.558;9.970;2022-11-25T07:06:20;13.30;;;8.47;;
14766;SDS011;7475;53.558;9.970;2022-11-25T07:08:46;15.80;;;8.80;;
14766;SDS011;7475;53.558;9.970;2022-11-25T07:13:54;17.63;;;9.37;;
14766;SDS011;7475;53.558;9.970;2022-11-25T07:16:27;13.50;;;8.33;;
14766;SDS011;7475;53.558;9.970;2022-11-25T07:18:53;15.97;;;8.33;;
14766;SDS011;7475;53.558;9.970;2022-11-25T07:21:20;19.10;;;9.23;;
14766;SDS011;7475;53.558;9.970;2022-11-25T07:23:47;19.83;;;8.60;;
14766;SDS011;7475;53.558;9.970;2022-11-25T07:26:18;16.43;;;8.73;;
14766;SDS011;7475;53.558;9.970;2022-11-25T07:28:45;15.33;;;8.23;;
14766;SDS011;7475;53.558;9.970;2022-11-25T07:33:39;16.60;;;8.10;;
14766;SDS011;7475;53.558;9.970;2022-11-25T07:36:06;15.93;;;9.10;;
14766;SDS011;7475;53.558;9.970;2022-11-25T07:38:32;14.30;;;8.17;;
14766;SDS011;7475;53.558;9.970;2022-11-25T07:41:09;18.83;;;8.70;;
14766;SDS011;7475;53.558;9.970;2022-11-25T07:43:49;15.93;;;7.30;;
14766;SDS011;7475;53.558;9.970;2022-11-25T07:46:22;17.87;;;7.47;;
14766;SDS011;7475;53.558;9.970;2022-11-25T07:48:52;14.63;;;7.83;;
14766;SDS011;7475;53.558;9.970;2022-11-25T07:51:23;16.17;;;7.17;;
14766;SDS011;7475;53.558;9.970;2022-11-25T07:53:52;15.27;;;7.23;;
14766;SDS011;7475;53.558;9.970;2022-11-25T07:56:18;16.73;;;7.27;;
14766;SDS011;7475;53.558;9.970;2022-11-25T07:58:45;16.80;;;7.20;;
14766;SDS011;7475;53.558;9.970;2022-11-25T08:01:11;13.20;;;6.70;;
14766;SDS011;7475;53.558;9.970;2022-11-25T08:03:38;15.57;;;7.73;;
14766;SDS011;7475;53.558;9.970;2022-11-25T08:06:06;14.60;;;7.30;;
14766;SDS011;7475;53.558;9.970;2022-11-25T08:08:34;13.20;;;6.60;;
14766;SDS011;7475;53.558;9.970;2022-11-25T08:11:05;15.95;;;7.03;;
14766;SDS011;7475;53.558;9.970;2022-11-25T08:13:31;12.07;;;6.53;;
14766;SDS011;7475;53.558;9.970;2022-11-25T08:15:57;13.10;;;6.03;;
14766;SDS011;7475;53.558;9.970;2022-11-25T08:18:23;15.10;;;6.00;;
14766;SDS011;7475;53.558;9.970;2022-11-25T08:20:48;16.43;;;5.90;;
14766;SDS011;7475;53.558;9.970;2022-11-25T08:23:14;14.47;;;7.57;;
14766;SDS011;7475;53.558;9.970;2022-11-25T08:25:39;10.73;;;5.37;;
14766;SDS011;7475;53.558;9.970;2022-11-25T08:28:05;13.53;;;6.13;;
14766;SDS011;7475;53.558;9.970;2022-11-25T08:30:31;15.50;;;7.57;;
14766;SDS011;7475;53.558;9.970;2022-11-25T08:32:56;18.87;;;6.57;;
14766;SDS011;7475;53.558;9.970;2022-11-25T08:35:22;13.20;;;6.50;;
14766;SDS011;7475;53.558;9.970;2022-11-25T08:37:48;14.23;;;7.20;;
14766;SDS011;7475;53.558;9.970;2022-11-25T08:40:13;11.20;;;7.03;;
14766;SDS011;7475;53.558;9.970;2022-11-25T08:42:39;12.17;;;6.10;;
14766;SDS011;7475;53.558;9.970;2022-11-25T08:45:05;14.00;;;6.77;;
14766;SDS011;7475;53.558;9.970;2022-11-25T08:47:31;15.43;;;6.73;;
14766;SDS011;7475;53.558;9.970;2022-11-25T08:49:56;11.23;;;6.77;;
14766;SDS011;7475;53.558;9.970;2022-11-25T08:52:22;15.00;;;6.87;;
14766;SDS011;7475;53.558;9.970;2022-11-25T08:54:48;10.57;;;6.35;;
14766;SDS011;7475;53.558;9.970;2022-11-25T08:57:13;14.67;;;6.90;;
14766;SDS011;7475;53.558;9.970;2022-11-25T08:59:39;11.37;;;5.97;;
14766;SDS011;7475;53.558;9.970;2022-11-25T09:02:05;12.73;;;6.00;;
14766;SDS011;7475;53.558;9.970;2022-11-25T09:04:32;10.43;;;6.45;;
14766;SDS011;7475;53.558;9.970;2022-11-25T09:06:58;11.90;;;6.38;;
14766;SDS011;7475;53.558;9.970;2022-11-25T09:09:24;13.88;;;6.18;;
14766;SDS011;7475;53.558;9.970;2022-11-25T09:11:49;11.53;;;6.17;;
14766;SDS011;7475;53.558;9.970;2022-11-25T09:14:14;11.83;;;6.23;;
14766;SDS011;7475;53.558;9.970;2022-11-25T09:16:40;15.10;;;6.00;;
14766;SDS011;7475;53.558;9.970;2022-11-25T09:19:05;11.30;;;6.13;;
14766;SDS011;7475;53.558;9.970;2022-11-25T09:21:31;17.47;;;6.70;;
14766;SDS011;7475;53.558;9.970;2022-11-25T09:23:56;12.93;;;5.43;;
14766;SDS011;7475;53.558;9.970;2022-11-25T09:26:23;11.17;;;5.63;;
14766;SDS011;7475;53.558;9.970;2022-11-25T09:28:50;14.17;;;5.27;;
14766;SDS011;7475;53.558;9.970;2022-11-25T09:31:16;11.60;;;5.70;;
14766;SDS011;7475;53.558;9.970;2022-11-25T09:33:41;16.57;;;6.07;;
14766;SDS011;7475;53.558;9.970;2022-11-25T09:36:08;14.30;;;6.67;;
14766;SDS011;7475;53.558;9.970;2022-11-25T09:38:34;10.80;;;6.20;;
14766;SDS011;7475;53.558;9.970;2022-11-25T09:41:05;11.80;;;6.27;;
14766;SDS011;7475;53.558;9.970;2022-11-25T09:43:53;10.98;;;6.18;;
14766;SDS011;7475;53.558;9.970;2022-11-25T09:52:10;10.87;;;5.40;;
14766;SDS011;7475;53.558;9.970;2022-11-25T10:00:18;15.60;;;6.10;;
14766;SDS011;7475;53.558;9.970;2022-11-25T10:02:38;14.65;;;6.50;;
14766;SDS011;7475;53.558;9.970;2022-11-25T10:05:20;11.43;;;6.37;;
14766;SDS011;7475;53.558;9.970;2022-11-25T10:07:51;12.53;;;5.53;;
14766;SDS011;7475;53.558;9.970;2022-11-25T10:10:28;14.13;;;5.40;;
14766;SDS011;7475;53.558;9.970;2022-11-25T10:12:57;14.67;;;6.50;;
14766;SDS011;7475;53.558;9.970;2022-11-25T10:15:31;14.98;;;5.90;;
14766;SDS011;7475;53.558;9.970;2022-11-25T10:18:05;12.32;;;5.90;;
14766;SDS011;7475;53.558;9.970;2022-11-25T10:20:39;12.85;;;6.00;;
14766;SDS011;7475;53.558;9.970;2022-11-25T10:23:18;11.30;;;5.63;;
14766;SDS011;7475;53.558;9.970;2022-11-25T10:25:49;14.60;;;5.80;;
14766;SDS011;7475;53.558;9.970;2022-11-25T10:28:21;12.80;;;5.90;;
14766;SDS011;7475;53.558;9.970;2022-11-25T10:33:43;13.55;;;5.68;;
14766;SDS011;7475;53.558;9.970;2022-11-25T10:36:17;13.57;;;5.78;;
14766;SDS011;7475;53.558;9.970;2022-11-25T10:39:21;13.25;;;5.78;;
14766;SDS011;7475;53.558;9.970;2022-11-25T10:42:00;13.48;;;5.53;;
14766;SDS011;7475;53.558;9.970;2022-11-25T10:44:32;10.43;;;5.38;;
14766;SDS011;7475;53.558;9.970;2022-11-25T10:49:43;12.25;;;5.68;;
14766;SDS011;7475;53.558;9.970;2022-11-25T10:52:12;11.23;;;5.90;;
14766;SDS011;7475;53.558;9.970;2022-11-25T10:54:38;11.90;;;5.95;;
14766;SDS011;7475;53.558;9.970;2022-11-25T10:57:15;10.70;;;5.90;;
14766;SDS011;7475;53.558;9.970;2022-11-25T10:59:43;12.18;;;6.03;;
14766;SDS011;7475;53.558;9.970;2022-11-25T11:04:57;14.55;;;6.03;;
14766;SDS011;7475;53.558;9.970;2022-11-25T11:07:32;13.80;;;5.95;;
14766;SDS011;7475;53.558;9.970;2022-11-25T11:12:41;23.35;;;12.93;;
14766;SDS011;7475;53.558;9.970;2022-11-25T11:15:31;11.53;;;6.13;;
14766;SDS011;7475;53.558;9.970;2022-11-25T11:18:25;12.02;;;6.10;;
14766;SDS011;7475;53.558;9.970;2022-11-25T11:20:57;10.98;;;5.72;;
14766;SDS011;7475;53.558;9.970;2022-11-25T11:23:24;12.65;;;6.68;;
14766;SDS011;7475;53.558;9.970;2022-11-25T11:50:29;11.65;;;5.65;;
14766;SDS011;7475;53.558;9.970;2022-11-25T11:53:03;10.10;;;5.68;;
14766;SDS011;7475;53.558;9.970;2022-11-25T12:03:46;12.52;;;6.32;;
14766;SDS011;7475;53.558;9.970;2022-11-25T12:06:21;13.27;;;6.60;;
14766;SDS011;7475;53.558;9.970;2022-11-25T12:08:49;27.40;;;11.93;;
14766;SDS011;7475;53.558;9.970;2022-11-25T12:11:21;19.23;;;8.23;;
14766;SDS011;7475;53.558;9.970;2022-11-25T12:13:59;17.60;;;8.07;;
14766;SDS011;7475;53.558;9.970;2022-11-25T12:16:35;15.35;;;6.78;;
14766;SDS011;7475;53.558;9.970;2022-11-25T12:19:20;12.95;;;5.95;;
14766;SDS011;7475;53.558;9.970;2022-11-25T12:26:56;12.13;;;5.80;;
14766;SDS011;7475;53.558;9.970;2022-11-25T12:29:34;9.63;;;5.45;;
14766;SDS011;7475;53.558;9.970;2022-11-25T12:32:16;13.93;;;6.55;;
14766;SDS011;7475;53.558;9.970;2022-11-25T12:43:03;18.25;;;6.93;;
14766;SDS011;7475;53.558;9.970;2022-11-25T12:45:36;12.45;;;6.20;;
14766;SDS011;7475;53.558;9.970;2022-11-25T12:48:04;11.73;;;5.88;;
14766;SDS011;7475;53.558;9.970;2022-11-25T12:50:46;15.98;;;6.70;;
14766;SDS011;7475;53.558;9.970;2022-11-25T12:56:01;14.35;;;6.68;;
14766;SDS011;7475;53.558;9.970;2022-11-25T13:06:41;12.88;;;6.53;;
14766;SDS011;7475;53.558;9.970;2022-11-25T13:14:52;20.75;;;9.40;;
14766;SDS011;7475;53.558;9.970;2022-11-25T13:17:20;18.02;;;9.00;;
14766;SDS011;7475;53.558;9.970;2022-11-25T13:19:46;13.80;;;6.95;;
14766;SDS011;7475;53.558;9.970;2022-11-25T13:24:47;16.23;;;7.47;;
14766;SDS011;7475;53.558;9.970;2022-11-25T13:30:33;16.08;;;7.15;;
14766;SDS011;7475;53.558;9.970;2022-11-25T13:35:45;14.68;;;6.63;;
14766;SDS011;7475;53.558;9.970;2022-11-25T13:40:55;10.88;;;6.65;;
14766;SDS011;7475;53.558;9.970;2022-11-25T13:43:25;15.00;;;7.07;;
14766;SDS011;7475;53.558;9.970;2022-11-25T13:45:50;12.57;;;6.90;;
14766;SDS011;7475;53.558;9.970;2022-11-25T13:50:43;16.88;;;7.40;;
14766;SDS011;7475;53.558;9.970;2022-11-25T13:55:49;10.18;;;6.45;;
14766;SDS011;7475;53.558;9.970;2022-11-25T14:08:44;18.42;;;8.35;;
14766;SDS011;7475;53.558;9.970;2022-11-25T14:24:39;17.33;;;7.70;;
14766;SDS011;7475;53.558;9.970;2022-11-25T14:27:15;18.60;;;7.63;;
14766;SDS011;7475;53.558;9.970;2022-11-25T14:32:32;20.52;;;14.20;;
14766;SDS011;7475;53.558;9.970;2022-11-25T14:35:21;21.48;;;11.68;;
14766;SDS011;7475;53.558;9.970;2022-11-25T14:37:50;18.60;;;11.80;;
14766;SDS011;7475;53.558;9.970;2022-11-25T14:40:23;18.00;;;11.70;;
14766;SDS011;7475;53.558;9.970;2022-11-25T14:42:53;16.40;;;7.82;;
14766;SDS011;7475;53.558;9.970;2022-11-25T14:45:30;14.60;;;7.65;;
14766;SDS011;7475;53.558;9.970;2022-11-25T14:47:57;26.10;;;16.13;;
14766;SDS011;7475;53.558;9.970;2022-11-25T14:50:36;27.63;;;15.75;;
14766;SDS011;7475;53.558;9.970;2022-11-25T14:53:07;35.63;;;23.23;;
14766;SDS011;7475;53.558;9.970;2022-11-25T14:55:35;20.25;;;12.30;;
14766;SDS011;7475;53.558;9.970;2022-11-25T14:58:01;20.30;;;11.65;;
14766;SDS011;7475;53.558;9.970;2022-11-25T15:00:27;18.38;;;11.85;;
14766;SDS011;7475;53.558;9.970;2022-11-25T15:05:19;27.73;;;14.82;;
14766;SDS011;7475;53.558;9.970;2022-11-25T15:07:57;19.80;;;11.38;;
14766;SDS011;7475;53.558;9.970;2022-11-25T15:12:53;21.95;;;12.55;;
14766;SDS011;7475;53.558;9.970;2022-11-25T15:15:19;17.35;;;9.93;;
14766;SDS011;7475;53.558;9.970;2022-11-25T15:17:44;20.70;;;10.73;;
14766;SDS011;7475;53.558;9.970;2022-11-25T15:20:11;23.98;;;12.80;;
14766;SDS011;7475;53.558;9.970;2022-11-25T15:22:44;21.30;;;9.38;;
14766;SDS011;7475;53.558;9.970;2022-11-25T15:25:12;19.30;;;9.32;;
14766;SDS011;7475;53.558;9.970;2022-11-25T15:27:43;17.27;;;9.25;;
14766;SDS011;7475;53.558;9.970;2022-11-25T15:30:19;15.60;;;8.65;;
14766;SDS011;7475;53.558;9.970;2022-11-25T15:32:47;20.48;;;10.38;;
14766;SDS011;7475;53.558;9.970;2022-11-25T15:35:18;18.80;;;9.73;;
14766;SDS011;7475;53.558;9.970;2022-11-25T15:37:47;17.23;;;9.20;;
14766;SDS011;7475;53.558;9.970;2022-11-25T15:43:06;22.40;;;10.85;;
14766;SDS011;7475;53.558;9.970;2022-11-25T15:45:45;16.42;;;8.60;;
14766;SDS011;7475;53.558;9.970;2022-11-25T15:48:17;17.35;;;9.50;;
14766;SDS011;7475;53.558;9.970;2022-11-25T15:50:50;19.02;;;9.70;;
14766;SDS011;7475;53.558;9.970;2022-11-25T15:53:22;19.98;;;10.30;;
14766;SDS011;7475;53.558;9.970;2022-11-25T15:55:50;25.85;;;13.48;;
14766;SDS011;7475;53.558;9.970;2022-11-25T15:58:20;25.60;;;10.80;;
14766;SDS011;7475;53.558;9.970;2022-11-25T16:01:04;19.75;;;13.07;;
14766;SDS011;7475;53.558;9.970;2022-11-25T16:03:31;20.85;;;11.90;;
14766;SDS011;7475;53.558;9.970;2022-11-25T16:05:59;138.65;;;69.03;;
14766;SDS011;7475;53.558;9.970;2022-11-25T16:08:35;21.85;;;11.48;;
14766;SDS011;7475;53.558;9.970;2022-11-25T16:11:19;22.42;;;12.93;;
14766;SDS011;7475;53.558;9.970;2022-11-25T16:13:46;27.00;;;14.50;;
14766;SDS011;7475;53.558;9.970;2022-11-25T16:16:14;32.17;;;15.63;;
14766;SDS011;7475;53.558;9.970;2022-11-25T16:21:17;23.90;;;13.80;;
14766;SDS011;7475;53.558;9.970;2022-11-25T16:23:50;20.83;;;11.38;;
14766;SDS011;7475;53.558;9.970;2022-11-25T16:26:27;19.90;;;11.50;;
14766;SDS011;7475;53.558;9.970;2022-11-25T16:28:57;16.92;;;10.98;;
14766;SDS011;7475;53.558;9.970;2022-11-25T16:31:24;20.42;;;11.27;;
14766;SDS011;7475;53.558;9.970;2022-11-25T16:33:58;38.80;;;21.77;;
14766;SDS011;7475;53.558;9.970;2022-11-25T16:36:26;72.10;;;48.10;;
14766;SDS011;7475;53.558;9.970;2022-11-25T16:38:51;21.38;;;12.30;;
14766;SDS011;7475;53.558;9.970;2022-11-25T16:41:24;28.75;;;17.25;;
14766;SDS011;7475;53.558;9.970;2022-11-25T16:43:51;30.60;;;18.73;;
14766;SDS011;7475;53.558;9.970;2022-11-25T16:46:17;30.52;;;18.05;;
14766;SDS011;7475;53.558;9.970;2022-11-25T16:48:43;25.83;;;13.43;;
14766;SDS011;7475;53.558;9.970;2022-11-25T16:51:16;19.27;;;12.88;;
14766;SDS011;7475;53.558;9.970;2022-11-25T16:53:43;26.65;;;14.38;;
14766;SDS011;7475;53.558;9.970;2022-11-25T16:56:13;22.48;;;14.80;;
14766;SDS011;7475;53.558;9.970;2022-11-25T16:58:42;34.10;;;20.08;;
14766;SDS011;7475;53.558;9.970;2022-11-25T17:01:10;32.03;;;20.00;;
14766;SDS011;7475;53.558;9.970;2022-11-25T17:03:38;29.33;;;17.67;;
14766;SDS011;7475;53.558;9.970;2022-11-25T17:06:09;34.20;;;20.73;;
14766;SDS011;7475;53.558;9.970;2022-11-25T17:08:37;35.03;;;22.52;;
14766;SDS011;7475;53.558;9.970;2022-11-25T17:11:02;48.13;;;28.05;;
14766;SDS011;7475;53.558;9.970;2022-11-25T17:13:28;33.25;;;19.48;;
14766;SDS011;7475;53.558;9.970;2022-11-25T17:15:53;38.25;;;19.15;;
14766;SDS011;7475;53.558;9.970;2022-11-25T17:18:19;28.65;;;18.52;;
14766;SDS011;7475;53.558;9.970;2022-11-25T17:20:44;24.88;;;15.93;;
14766;SDS011;7475;53.558;9.970;2022-11-25T17:23:11;26.40;;;16.95;;
14766;SDS011;7475;53.558;9.970;2022-11-25T17:25:38;30.05;;;19.20;;